Hlavní strana
METAR-TAF:

METAR-TAF

Letiště :

Kairouan, Tunisko

zeměpisná šířka: 35-40N, zeměpisná délka: 010-06E, výška: 60 m

Aktuální stav počasí

Zpráva byla vytvořena před 51 minutami, v 04:00 UTC
vítr z různých směrů 1 kt
Teplota 9°C
Vlhkost vzduchu 93%
Tlak 1022 hPa
Viditelnost: 6000 m

METAR: DTTK 250400Z VRB01KT 6000 NSC 09/08 Q1022

Čas: 05:51 (04:51 UTC)


TAF: chybějící

Stav a předpovědi počasí z více než 4 000 letišť (zprávy METAR a TAF).

Červené a žluté tečky na mapě představují dostupné meteorologické stanice.

Když kurzor umístíte na tečku, zobrazí se název stanice.

Pak kliknutím zobrazíte stav a předpověď počasí.

Chcete-li změnit mapu, kliknutím na zelené tlačítko se znaménkem +mapu přiblížíte, kliknutím na zelené tlačítko se znaménkem – mapu oddálíte a kliknutím na zelené šipky přejdete na sousední mapy.


METAR-TAF: